Time;durP1;ratioP1;P1;durP2;ratioP2;P2;SDS_P1;SDS_P2;PMS_P1;PMS_P2;Temp;Humidity;BMP_temperature;BMP_pressure;BME280_temperature;BME280_humidity;BME280_pressure;Samples;Min_cycle;Max_cycle;Signal;HPM_P1;HPM_P2
2023/09/13 00:02:12;;;;;;;6.10;5.50;;;;;;;22.27;59.93;97749.84;4978165;28;20459;-87
2023/09/13 00:04:39;;;;;;;6.30;5.80;;;;;;;22.17;61.85;97755.41;4974868;28;20541;-86
2023/09/13 00:07:05;;;;;;;6.27;5.70;;;;;;;21.93;62.79;97753.28;4981559;28;20470;-86
2023/09/13 00:09:32;;;;;;;6.77;6.27;;;;;;;21.77;63.36;97765.47;4984745;28;20510;-87
2023/09/13 00:11:59;;;;;;;7.23;6.63;;;;;;;21.44;64.67;97781.53;4965912;28;21083;-86
2023/09/13 00:14:26;;;;;;;8.50;7.73;;;;;;;21.23;67.50;97784.63;4970511;28;21035;-85
2023/09/13 00:16:53;;;;;;;7.47;6.73;;;;;;;20.98;69.49;97771.66;4964666;28;20688;-83
2023/09/13 00:19:21;;;;;;;6.20;5.80;;;;;;;20.80;69.40;97770.28;4968894;28;20502;-84
2023/09/13 00:21:48;;;;;;;6.83;6.27;;;;;;;20.68;70.92;97776.06;4972182;28;20477;-83
2023/09/13 00:24:15;;;;;;;6.87;6.27;;;;;;;20.50;73.62;97773.81;4972685;28;20458;-82
2023/09/13 00:26:41;;;;;;;6.90;6.30;;;;;;;20.44;73.15;97783.19;4972643;28;20486;-82
2023/09/13 00:29:08;;;;;;;6.50;6.10;;;;;;;20.22;74.74;97777.84;4970905;28;20539;-83
2023/09/13 00:31:35;;;;;;;7.93;7.23;;;;;;;20.09;75.56;97775.63;4975292;28;20465;-82
2023/09/13 00:34:02;;;;;;;7.50;7.00;;;;;;;20.06;75.67;97776.19;4973617;28;20540;-82
2023/09/13 00:36:31;;;;;;;7.20;6.60;;;;;;;19.90;76.16;97775.28;4968214;28;20491;-81
2023/09/13 00:38:57;;;;;;;6.70;6.20;;;;;;;20.00;76.23;97769.84;4973317;28;20561;-81
2023/09/13 00:41:24;;;;;;;7.77;7.00;;;;;;;19.93;76.95;97777.50;4973248;28;20459;-81
2023/09/13 00:43:51;;;;;;;7.27;6.63;;;;;;;19.83;76.90;97777.44;4973960;28;20481;-81
2023/09/13 00:46:18;;;;;;;6.90;6.40;;;;;;;19.69;78.37;97762.56;4970687;28;20800;-81
2023/09/13 00:48:45;;;;;;;7.63;6.53;;;;;;;19.52;78.97;97759.16;4971947;28;21036;-80
2023/09/13 00:51:11;;;;;;;7.03;6.53;;;;;;;19.45;78.83;97756.66;4972583;28;20462;-80
2023/09/13 00:53:40;;;;;;;6.27;5.77;;;;;;;19.35;79.15;97754.66;4972502;28;20520;-80
2023/09/13 00:56:07;;;;;;;5.27;4.77;;;;;;;19.36;78.58;97755.50;4971675;28;20474;-81
2023/09/13 00:58:34;;;;;;;6.50;6.00;;;;;;;19.21;80.25;97742.50;4972458;28;20471;-81
2023/09/13 01:01:02;;;;;;;6.03;5.53;;;;;;;19.27;81.19;97726.88;4972012;28;20496;-80
2023/09/13 01:03:29;;;;;;;5.70;5.30;;;;;;;19.16;81.54;97728.75;4974188;28;20466;-80
2023/09/13 01:05:56;;;;;;;6.13;5.63;;;;;;;19.25;80.63;97718.09;4972972;28;20471;-78
2023/09/13 01:08:23;;;;;;;6.50;5.97;;;;;;;19.07;81.08;97708.41;4973771;28;20984;-82
2023/09/13 01:10:51;;;;;;;5.80;5.40;;;;;;;19.08;81.04;97705.38;4972430;28;20592;-80
2023/09/13 01:13:18;;;;;;;6.60;6.00;;;;;;;19.15;82.35;97699.69;4970234;28;20450;-80
2023/09/13 01:15:52;;;;;;;7.10;6.57;;;;;;;19.17;86.95;97680.22;4974173;28;20458;-80
2023/09/13 01:18:23;;;;;;;7.50;6.90;;;;;;;19.39;85.67;97678.94;4970580;28;20499;-80
2023/09/13 01:21:00;;;;;;;9.47;8.67;;;;;;;19.40;86.67;97677.84;4975505;28;20467;-80
2023/09/13 01:23:44;;;;;;;8.53;7.83;;;;;;;19.49;87.39;97683.66;4971141;28;20546;-80
2023/09/13 01:26:46;;;;;;;8.07;7.47;;;;;;;19.41;87.69;97676.75;4973822;28;20469;-81
2023/09/13 01:29:16;;;;;;;7.03;6.43;;;;;;;19.43;84.58;97679.22;4958931;28;20502;-80
2023/09/13 01:31:44;;;;;;;7.40;6.80;;;;;;;19.31;84.46;97682.19;4970237;28;20558;-81
2023/09/13 01:34:11;;;;;;;6.57;6.03;;;;;;;19.21;82.06;97689.53;4968768;28;20552;-80
2023/09/13 01:36:38;;;;;;;6.63;6.00;;;;;;;19.25;81.70;97691.47;4972234;28;20496;-80
2023/09/13 01:39:05;;;;;;;7.30;6.77;;;;;;;19.15;82.05;97687.88;4980056;28;20612;-81
2023/09/13 01:41:37;;;;;;;6.40;6.00;;;;;;;19.25;82.48;97694.22;4981009;28;20492;-80
2023/09/13 01:44:04;;;;;;;7.33;6.73;;;;;;;19.31;82.63;97698.66;4973523;28;20458;-81
2023/09/13 01:46:35;;;;;;;7.37;6.57;;;;;;;19.22;83.40;97710.38;4978413;28;20983;-80
2023/09/13 01:49:03;;;;;;;7.10;6.60;;;;;;;19.27;82.88;97711.25;4982541;28;20586;-80
2023/09/13 01:51:30;;;;;;;8.10;7.30;;;;;;;19.27;83.01;97697.53;4974667;28;20458;-80
2023/09/13 01:53:57;;;;;;;6.60;6.00;;;;;;;19.23;83.58;97696.41;4982735;28;20493;-80
2023/09/13 01:56:24;;;;;;;5.97;5.57;;;;;;;19.28;83.36;97699.19;4981795;28;20521;-80
2023/09/13 01:58:51;;;;;;;6.90;6.40;;;;;;;19.43;81.97;97695.69;4983125;28;21043;-81
2023/09/13 02:01:18;;;;;;;5.67;5.27;;;;;;;19.45;81.50;97694.34;4975178;28;20554;-80
2023/09/13 02:03:46;;;;;;;5.80;5.40;;;;;;;19.46;80.67;97695.16;4980545;28;20950;-81
2023/09/13 02:06:13;;;;;;;6.10;5.10;;;;;;;19.54;79.74;97702.06;4974504;28;20460;-80
2023/09/13 02:08:41;;;;;;;5.57;5.07;;;;;;;19.55;78.87;97698.22;4974098;28;20493;-81
2023/09/13 02:11:08;;;;;;;4.97;4.67;;;;;;;19.69;78.09;97710.38;4969326;28;20546;-81
2023/09/13 02:13:35;;;;;;;6.83;5.93;;;;;;;19.44;80.00;97722.88;4970496;28;20532;-81
2023/09/13 02:16:03;;;;;;;5.97;5.30;;;;;;;19.35;80.93;97721.72;4971505;28;20558;-81
2023/09/13 02:18:29;;;;;;;7.10;5.30;;;;;;;19.41;80.44;97715.19;4975600;28;20806;-81
2023/09/13 02:20:57;;;;;;;5.70;5.20;;;;;;;19.34;80.57;97717.34;4977239;28;20550;-80
2023/09/13 02:23:24;;;;;;;5.87;5.40;;;;;;;19.46;80.60;97720.69;4973870;28;20539;-81
2023/09/13 02:25:51;;;;;;;6.40;6.00;;;;;;;19.53;80.70;97722.38;4982031;28;21138;-80
2023/09/13 02:28:18;;;;;;;6.23;5.83;;;;;;;19.48;80.96;97733.34;4979806;28;20572;-80
2023/09/13 02:30:46;;;;;;;6.07;5.60;;;;;;;19.48;81.90;97727.84;4968899;28;20487;-81
2023/09/13 02:33:13;;;;;;;5.60;5.03;;;;;;;19.49;82.27;97721.25;4976092;28;20465;-81
2023/09/13 02:35:39;;;;;;;5.63;5.23;;;;;;;19.48;83.37;97727.84;4969830;28;20454;-81
2023/09/13 02:38:08;;;;;;;6.37;5.87;;;;;;;19.53;83.23;97716.91;4971825;28;21225;-80
2023/09/13 02:40:34;;;;;;;6.40;6.00;;;;;;;19.49;84.01;97710.28;4970839;28;20456;-81
2023/09/13 02:43:01;;;;;;;6.60;5.97;;;;;;;19.56;84.80;97703.47;4977970;28;20488;-81
2023/09/13 02:45:29;;;;;;;6.20;5.80;;;;;;;19.58;82.84;97711.44;4975977;28;20459;-80
2023/09/13 02:47:56;;;;;;;5.93;5.27;;;;;;;19.52;82.51;97704.25;4969796;28;20557;-80
2023/09/13 02:50:22;;;;;;;5.10;4.70;;;;;;;19.41;82.59;97709.69;4971345;28;20456;-81
2023/09/13 02:52:50;;;;;;;7.70;7.10;;;;;;;19.34;82.53;97716.50;4964077;28;20562;-80
2023/09/13 02:55:18;;;;;;;7.70;6.97;;;;;;;19.29;82.40;97725.53;4966309;28;20475;-80
2023/09/13 02:57:44;;;;;;;6.17;5.77;;;;;;;19.35;81.68;97738.19;4974572;28;20508;-81
2023/09/13 03:00:13;;;;;;;6.60;5.90;;;;;;;19.54;81.16;97737.75;4974096;28;21008;-81
2023/09/13 03:02:39;;;;;;;5.67;5.27;;;;;;;19.56;80.38;97733.66;4981200;28;20543;-81
2023/09/13 03:05:06;;;;;;;4.90;4.50;;;;;;;19.53;80.57;97744.34;4974864;28;20543;-81
2023/09/13 03:07:33;;;;;;;5.70;5.17;;;;;;;19.47;80.43;97751.72;4972687;28;20473;-81
2023/09/13 03:10:00;;;;;;;5.77;5.27;;;;;;;19.44;80.37;97746.75;4974175;28;20493;-81
2023/09/13 03:12:28;;;;;;;5.67;5.17;;;;;;;19.53;79.36;97744.34;4971116;28;20565;-81
2023/09/13 03:14:55;;;;;;;5.07;4.60;;;;;;;19.43;79.63;97750.59;4975047;28;20469;-81
2023/09/13 03:17:22;;;;;;;5.30;4.80;;;;;;;19.32;79.42;97749.69;4972047;28;20518;-81
2023/09/13 03:19:48;;;;;;;5.37;4.87;;;;;;;19.29;79.52;97760.38;4980168;28;21081;-80
2023/09/13 03:22:15;;;;;;;5.27;4.87;;;;;;;19.31;79.20;97755.47;4971620;28;20460;-81
2023/09/13 03:24:42;;;;;;;5.50;5.10;;;;;;;19.31;79.59;97764.53;4972684;28;20464;-81
2023/09/13 03:27:09;;;;;;;5.37;4.90;;;;;;;19.27;80.00;97760.66;4974873;28;20455;-82
2023/09/13 03:29:38;;;;;;;5.90;5.40;;;;;;;19.12;80.23;97766.88;4970337;28;20573;-80
2023/09/13 03:32:06;;;;;;;5.17;4.77;;;;;;;19.16;80.76;97758.13;4975338;28;20470;-81
2023/09/13 03:34:32;;;;;;;6.70;5.33;;;;;;;19.10;79.85;97758.09;4974811;28;20863;-82
2023/09/13 03:37:00;;;;;;;5.40;5.10;;;;;;;19.00;79.97;97757.16;4976091;28;20582;-77
2023/09/13 03:39:28;;;;;;;5.60;5.10;;;;;;;18.67;79.97;97715.25;4972042;28;20564;-74
2023/09/13 03:41:56;;;;;;;6.00;5.60;;;;;;;18.62;80.40;97734.38;4980552;28;20461;-73
2023/09/13 03:44:23;;;;;;;4.83;4.53;;;;;;;18.94;80.14;97763.69;4977075;28;20465;-73
2023/09/13 03:46:51;;;;;;;5.37;4.97;;;;;;;19.00;79.76;97766.22;4975034;28;20461;-73
2023/09/13 03:49:18;;;;;;;5.97;5.33;;;;;;;19.06;79.45;97778.06;4980336;28;21472;-73
2023/09/13 03:51:45;;;;;;;5.30;4.90;;;;;;;18.91;80.74;97773.28;4971033;28;21020;-73
2023/09/13 03:54:11;;;;;;;5.43;5.03;;;;;;;19.05;79.89;97765.44;4971161;28;20550;-73
2023/09/13 03:56:38;;;;;;;6.07;5.57;;;;;;;19.06;79.68;97759.69;4976839;28;20491;-74
2023/09/13 03:59:05;;;;;;;5.40;5.00;;;;;;;19.19;79.84;97755.66;4970897;28;20489;-73
2023/09/13 04:01:32;;;;;;;5.27;4.90;;;;;;;19.06;79.33;97762.44;4973771;28;20462;-73
2023/09/13 04:04:00;;;;;;;5.03;4.73;;;;;;;19.15;79.39;97770.19;4976758;28;20459;-72
2023/09/13 04:06:27;;;;;;;6.27;5.70;;;;;;;19.17;79.02;97774.28;4977099;28;20475;-73
2023/09/13 04:08:53;;;;;;;5.33;4.93;;;;;;;19.18;79.51;97764.13;4969787;28;20480;-73
2023/09/13 04:11:20;;;;;;;5.30;4.80;;;;;;;19.08;79.04;97773.16;4968664;28;20450;-73
2023/09/13 04:13:47;;;;;;;6.03;5.53;;;;;;;18.95;79.79;97779.06;4977344;28;20457;-73
2023/09/13 04:16:15;;;;;;;5.70;5.30;;;;;;;19.06;79.64;97772.59;4981572;28;21277;-74
2023/09/13 04:18:42;;;;;;;5.70;5.30;;;;;;;19.05;79.40;97779.16;4971992;28;20557;-74
2023/09/13 04:21:10;;;;;;;5.43;4.93;;;;;;;19.01;79.84;97778.03;4971885;28;20498;-73
2023/09/13 04:23:37;;;;;;;5.70;5.30;;;;;;;19.05;79.73;97787.38;4972836;28;20450;-73
2023/09/13 04:26:03;;;;;;;6.03;5.50;;;;;;;19.09;79.36;97788.53;4971843;28;20463;-74
2023/09/13 04:28:30;;;;;;;6.33;5.87;;;;;;;18.96;79.82;97783.47;4975215;28;20566;-75
2023/09/13 04:30:59;;;;;;;6.23;5.70;;;;;;;18.77;80.51;97781.13;4969172;28;20523;-74
2023/09/13 04:33:50;;;;;;;6.07;5.50;;;;;;;18.87;80.41;97774.06;4972367;28;21510;-74
2023/09/13 04:36:18;;;;;;;5.60;5.20;;;;;;;18.96;80.06;97783.47;4970814;28;20468;-75
2023/09/13 04:38:46;;;;;;;6.03;4.97;;;;;;;19.18;79.13;97775.94;4971526;28;20923;-76
2023/09/13 04:41:14;;;;;;;5.33;4.93;;;;;;;19.36;78.82;97772.78;4971466;28;20985;-74
2023/09/13 04:43:41;;;;;;;5.77;5.20;;;;;;;19.17;79.06;97785.25;4973499;28;21940;-80
2023/09/13 04:46:07;;;;;;;6.20;5.70;;;;;;;19.05;79.69;97801.09;4972897;28;20470;-75
2023/09/13 04:48:34;;;;;;;5.40;5.00;;;;;;;18.95;80.17;97804.59;4976735;28;20484;-79
2023/09/13 04:51:02;;;;;;;5.83;5.40;;;;;;;18.94;79.89;97808.41;4973796;28;20537;-80
2023/09/13 04:53:30;;;;;;;5.87;5.47;;;;;;;18.85;79.98;97812.72;4978085;28;20565;-81
2023/09/13 04:55:57;;;;;;;6.03;5.63;;;;;;;18.79;80.47;97816.53;4979226;28;20545;-80
2023/09/13 04:58:24;;;;;;;5.77;5.37;;;;;;;18.84;80.57;97819.31;4976201;28;21047;-80
2023/09/13 05:00:53;;;;;;;6.00;5.50;;;;;;;18.88;80.29;97816.84;4978880;28;20463;-80
2023/09/13 05:03:20;;;;;;;5.63;5.13;;;;;;;18.87;80.28;97817.94;4975813;28;20451;-80
2023/09/13 05:05:47;;;;;;;6.30;5.73;;;;;;;18.71;80.66;97815.06;4976502;28;20463;-78
2023/09/13 05:08:15;;;;;;;5.70;5.30;;;;;;;18.77;80.75;97816.78;4976256;28;20474;-78
2023/09/13 05:10:45;;;;;;;6.70;6.17;;;;;;;18.76;81.00;97817.88;4978851;28;21179;-74
2023/09/13 05:13:12;;;;;;;6.13;5.70;;;;;;;18.75;81.43;97824.44;4979312;28;20469;-78
2023/09/13 05:15:43;;;;;;;6.53;6.13;;;;;;;18.93;80.82;97827.88;4971964;28;20461;-78
2023/09/13 05:18:10;;;;;;;6.50;5.90;;;;;;;19.00;80.85;97820.25;4969495;28;20505;-78
2023/09/13 05:20:37;;;;;;;5.83;5.33;;;;;;;19.06;80.79;97821.97;4972965;28;20547;-79
2023/09/13 05:23:05;;;;;;;6.07;5.67;;;;;;;18.90;81.20;97818.25;4972985;28;20474;-78
2023/09/13 05:25:31;;;;;;;6.20;5.70;;;;;;;19.06;80.79;97817.31;4973852;28;20895;-78
2023/09/13 05:28:00;;;;;;;5.80;5.40;;;;;;;18.93;80.99;97806.75;4965852;28;21084;-77
2023/09/13 05:30:30;;;;;;;6.00;5.50;;;;;;;18.95;81.04;97814.72;4968816;28;20473;-79
2023/09/13 05:32:57;;;;;;;5.77;5.37;;;;;;;19.09;79.96;97824.19;4974407;28;20553;-78
2023/09/13 05:35:24;;;;;;;5.93;5.50;;;;;;;19.08;79.86;97825.28;4979469;28;20455;-78
2023/09/13 05:37:51;;;;;;;5.83;5.33;;;;;;;19.08;79.88;97833.50;4971494;28;20550;-78
2023/09/13 05:40:18;;;;;;;5.77;5.37;;;;;;;19.24;79.58;97840.75;4969704;28;20541;-78
2023/09/13 05:42:45;;;;;;;6.90;6.20;;;;;;;19.20;79.60;97838.78;4971241;28;20833;-78
2023/09/13 05:45:13;;;;;;;5.37;5.07;;;;;;;19.03;79.45;97844.44;4976996;28;20796;-78
2023/09/13 05:47:40;;;;;;;5.97;5.47;;;;;;;19.10;79.79;97847.78;4971426;28;20562;-78
2023/09/13 05:50:07;;;;;;;6.20;5.70;;;;;;;19.13;80.03;97848.09;4973852;28;20549;-80
2023/09/13 05:52:35;;;;;;;5.60;5.20;;;;;;;19.34;79.34;97846.31;4969115;28;20462;-78
2023/09/13 05:55:01;;;;;;;5.83;5.27;;;;;;;19.38;79.20;97852.13;4968946;28;21187;-78
2023/09/13 05:57:29;;;;;;;11.53;6.17;;;;;;;19.38;78.65;97844.72;4975068;28;20500;-78
2023/09/13 05:59:55;;;;;;;8.57;5.40;;;;;;;19.47;78.77;97839.56;4969790;28;20479;-78
2023/09/13 06:02:23;;;;;;;5.80;5.40;;;;;;;19.57;77.95;97838.81;4969343;28;20468;-78
2023/09/13 06:04:50;;;;;;;5.20;4.50;;;;;;;19.65;76.70;97839.16;4970930;28;20910;-78
2023/09/13 06:07:17;;;;;;;4.97;4.57;;;;;;;19.76;77.55;97842.78;4969800;28;20555;-78
2023/09/13 06:09:44;;;;;;;5.90;5.40;;;;;;;19.74;76.77;97847.72;4969132;28;20453;-79
2023/09/13 06:12:11;;;;;;;5.20;4.70;;;;;;;19.72;76.83;97850.75;4973167;28;20470;-79
2023/09/13 06:14:38;;;;;;;4.90;4.50;;;;;;;19.66;76.61;97860.03;4969810;28;20487;-78
2023/09/13 06:17:04;;;;;;;4.60;4.30;;;;;;;19.56;76.78;97859.13;4969796;28;20484;-78
2023/09/13 06:19:33;;;;;;;5.23;4.67;;;;;;;19.50;76.73;97871.94;4972933;28;20523;-78
2023/09/13 06:22:00;;;;;;;4.93;4.53;;;;;;;19.45;78.25;97874.69;4976644;28;20455;-78
2023/09/13 06:24:26;;;;;;;5.40;5.00;;;;;;;19.38;77.98;97880.41;4972704;28;20449;-78
2023/09/13 06:26:55;;;;;;;4.87;4.50;;;;;;;19.43;78.03;97879.63;4971560;28;20463;-78
2023/09/13 06:29:22;;;;;;;19.00;17.57;;;;;;;19.31;78.49;97896.25;4971759;28;20487;-78
2023/09/13 06:31:49;;;;;;;4.63;4.33;;;;;;;19.18;79.05;97899.41;4976989;28;21495;-78
2023/09/13 06:34:16;;;;;;;11.20;10.40;;;;;;;19.15;79.35;97904.63;4969858;28;20879;-78
2023/09/13 06:36:45;;;;;;;4.53;4.23;;;;;;;19.12;79.18;97908.72;4979148;28;20466;-78
2023/09/13 06:39:11;;;;;;;4.70;4.40;;;;;;;19.07;79.60;97911.41;4974120;28;20842;-78
2023/09/13 06:41:38;;;;;;;4.50;4.20;;;;;;;19.03;79.66;97913.84;4969026;28;20471;-78
2023/09/13 06:44:09;;;;;;;54.00;10.87;;;;;;;19.04;79.84;97910.00;4971363;28;20471;-78
2023/09/13 06:46:36;;;;;;;5.03;4.63;;;;;;;18.99;80.18;97911.88;4975454;28;20454;-78
2023/09/13 06:49:03;;;;;;;98.20;13.73;;;;;;;18.97;80.88;97916.78;4972410;28;20495;-78
2023/09/13 06:51:30;;;;;;;5.10;4.70;;;;;;;19.12;80.20;97923.25;4971646;28;20464;-79
2023/09/13 06:53:58;;;;;;;8.00;5.87;;;;;;;19.06;80.43;97926.22;4977892;28;20795;-76
2023/09/13 06:56:25;;;;;;;5.33;4.93;;;;;;;18.89;80.78;97925.47;4968967;28;20476;-75
2023/09/13 06:58:53;;;;;;;5.60;5.20;;;;;;;18.77;81.54;97922.91;4969853;28;20525;-74
2023/09/13 07:01:19;;;;;;;5.07;4.67;;;;;;;18.82;81.49;97922.13;4969660;28;20464;-75
2023/09/13 07:03:46;;;;;;;5.23;4.73;;;;;;;18.70;81.49;97925.00;4976045;28;20467;-74
2023/09/13 07:06:13;;;;;;;6.07;5.47;;;;;;;19.04;80.90;97928.38;4984856;28;20481;-75
2023/09/13 07:08:40;;;;;;;5.90;5.50;;;;;;;19.14;80.16;97920.25;4974686;28;20471;-75
2023/09/13 07:11:09;;;;;;;5.50;5.07;;;;;;;19.18;80.35;97928.78;4968963;28;20497;-74
2023/09/13 07:13:35;;;;;;;6.03;5.43;;;;;;;19.15;80.10;97934.81;4971186;28;20462;-75
2023/09/13 07:16:02;;;;;;;5.90;5.40;;;;;;;19.19;80.19;97936.75;4973285;28;20456;-78
2023/09/13 07:18:29;;;;;;;211.33;26.00;;;;;;;19.35;79.68;97924.84;4975727;28;21123;-79
2023/09/13 07:20:56;;;;;;;5.00;4.70;;;;;;;19.50;78.68;97937.00;4969379;28;20455;-79
2023/09/13 07:23:23;;;;;;;4.70;4.30;;;;;;;19.46;78.91;97943.06;4983458;28;20469;-78
2023/09/13 07:25:50;;;;;;;4.20;3.90;;;;;;;19.55;78.39;97932.44;4974338;28;20464;-79
2023/09/13 07:28:18;;;;;;;4.40;4.10;;;;;;;19.64;78.25;97932.78;4970083;28;20569;-78
2023/09/13 07:30:45;;;;;;;5.20;4.70;;;;;;;19.69;77.22;97941.06;4977469;28;20448;-78
2023/09/13 07:33:12;;;;;;;5.13;4.80;;;;;;;19.52;77.54;97943.09;4973439;28;20464;-78
2023/09/13 07:35:39;;;;;;;6.17;5.77;;;;;;;19.53;77.69;97947.50;4972000;28;20538;-79
2023/09/13 07:38:06;;;;;;;6.47;5.93;;;;;;;19.61;77.88;97945.13;4973488;28;21026;-79
2023/09/13 07:40:32;;;;;;;4.20;3.90;;;;;;;19.83;76.60;97936.75;4974502;28;20460;-79
2023/09/13 07:42:59;;;;;;;4.00;3.70;;;;;;;19.90;76.57;97947.53;4974599;28;20455;-78
2023/09/13 07:45:31;;;;;;;4.43;4.03;;;;;;;20.20;75.52;97949.63;4972526;28;20544;-79
2023/09/13 07:47:59;;;;;;;4.67;4.37;;;;;;;20.22;75.19;97955.69;4973908;28;21021;-79
2023/09/13 07:50:30;;;;;;;6.27;5.70;;;;;;;20.37;75.21;97953.03;4979604;28;20486;-78
2023/09/13 07:52:58;;;;;;;4.87;4.47;;;;;;;20.34;74.50;97957.16;4971551;28;20457;-79
2023/09/13 07:55:25;;;;;;;5.00;4.50;;;;;;;20.10;75.18;97954.00;4974827;28;20463;-78
2023/09/13 07:57:52;;;;;;;3.90;3.67;;;;;;;20.40;74.67;97958.03;4974023;28;20515;-79
2023/09/13 08:00:19;;;;;;;4.00;3.70;;;;;;;20.39;74.27;97959.13;4972365;28;20823;-79
2023/09/13 08:02:48;;;;;;;5.17;4.70;;;;;;;20.39;74.01;97967.38;4975071;28;20464;-78
2023/09/13 08:05:15;;;;;;;4.73;4.33;;;;;;;20.39;73.70;97967.38;4974374;28;20464;-78
2023/09/13 08:07:42;;;;;;;4.30;4.00;;;;;;;20.44;73.74;97964.66;4973063;28;20474;-78
2023/09/13 08:10:09;;;;;;;10.40;9.60;;;;;;;20.31;74.22;97967.84;4967813;28;20487;-78
2023/09/13 08:12:36;;;;;;;19.07;17.27;;;;;;;20.28;74.17;97971.13;4972015;28;20552;-78
2023/09/13 08:15:04;;;;;;;14.73;13.63;;;;;;;20.55;73.39;97969.09;4968572;28;20481;-79
2023/09/13 08:17:31;;;;;;;15.57;14.37;;;;;;;20.62;72.75;97958.69;4971332;28;20490;-79
2023/09/13 08:20:00;;;;;;;10.10;9.20;;;;;;;20.71;72.73;97972.75;4972750;28;21027;-79
2023/09/13 08:22:26;;;;;;;13.10;5.43;;;;;;;20.86;72.56;97975.53;4977979;28;20463;-78
2023/09/13 08:24:54;;;;;;;6.60;4.53;;;;;;;20.91;72.73;97977.47;4975670;28;20585;-83
2023/09/13 08:27:21;;;;;;;46.23;10.03;;;;;;;20.87;72.42;97990.13;4982538;28;20554;-79
2023/09/13 08:29:48;;;;;;;5.00;4.57;;;;;;;20.99;71.94;97979.72;4973335;28;20517;-79
2023/09/13 08:32:15;;;;;;;4.77;4.37;;;;;;;21.03;71.13;97983.59;4973515;28;20550;-79
2023/09/13 08:34:41;;;;;;;4.70;4.30;;;;;;;20.97;71.08;97987.41;4971060;28;20492;-79
2023/09/13 08:37:10;;;;;;;4.67;4.37;;;;;;;21.01;71.41;97994.03;4972374;28;20569;-79
2023/09/13 08:39:37;;;;;;;4.83;4.43;;;;;;;20.77;71.99;97997.25;4976566;28;20497;-79
2023/09/13 08:42:04;;;;;;;4.60;4.30;;;;;;;20.91;71.61;97992.06;4973992;28;20961;-79
2023/09/13 08:44:31;;;;;;;5.00;3.57;;;;;;;21.27;70.58;97995.78;4972267;28;20819;-79
2023/09/13 08:46:59;;;;;;;4.50;4.20;;;;;;;21.08;70.80;98005.63;4971062;28;20497;-79
2023/09/13 08:49:26;;;;;;;4.90;4.50;;;;;;;20.93;71.26;98005.56;4968461;28;20974;-78
2023/09/13 08:51:53;;;;;;;4.13;3.73;;;;;;;21.06;70.86;98005.06;4971578;28;20548;-77
2023/09/13 08:54:22;;;;;;;4.70;4.30;;;;;;;20.70;73.31;98007.69;4971043;28;20474;-78
2023/09/13 08:56:48;;;;;;;4.73;4.33;;;;;;;20.58;72.93;98009.81;4971947;28;20482;-79
2023/09/13 08:59:16;;;;;;;4.30;4.00;;;;;;;20.35;73.94;98015.69;4967553;28;20493;-79
2023/09/13 09:01:47;;;;;;;8.07;7.33;;;;;;;20.31;73.97;98009.91;4969918;28;20977;-79
2023/09/13 09:04:15;;;;;;;8.43;7.83;;;;;;;20.40;73.87;98015.78;4966560;28;20478;-79
2023/09/13 09:06:42;;;;;;;5.03;4.60;;;;;;;20.64;72.92;98011.50;4971635;28;20498;-79
2023/09/13 09:09:09;;;;;;;4.20;3.80;;;;;;;20.66;73.21;98011.22;4970285;28;20471;-79
2023/09/13 09:11:37;;;;;;;6.30;4.63;;;;;;;20.65;73.20;98021.41;4970931;28;20463;-79
2023/09/13 09:14:05;;;;;;;4.90;4.50;;;;;;;20.47;74.54;98012.78;4970156;28;20490;-79
2023/09/13 09:16:33;;;;;;;4.37;4.00;;;;;;;20.37;74.44;98016.25;4975758;28;20498;-79
2023/09/13 09:19:01;;;;;;;4.57;4.17;;;;;;;20.51;74.93;98025.72;4972386;28;21077;-79
2023/09/13 09:21:30;;;;;;;4.80;4.50;;;;;;;20.74;74.27;98030.81;4976619;28;20467;-80
2023/09/13 09:23:58;;;;;;;16.93;14.87;;;;;;;20.88;72.58;98027.53;4971428;28;20494;-80
2023/09/13 09:26:24;;;;;;;21.40;15.57;;;;;;;21.17;71.72;98023.25;4968866;28;20459;-79
2023/09/13 09:28:53;;;;;;;8.40;7.10;;;;;;;21.07;71.82;98026.81;4971494;28;20863;-80
2023/09/13 09:31:24;;;;;;;6.47;5.87;;;;;;;20.96;72.22;98027.88;4969391;28;21019;-79
2023/09/13 09:34:02;;;;;;;4.80;4.50;;;;;;;20.94;71.97;98031.97;4972539;28;20537;-80
2023/09/13 09:36:34;;;;;;;25.00;20.73;;;;;;;20.72;72.72;98034.91;4971585;28;20581;-79
2023/09/13 09:39:01;;;;;;;5.80;5.23;;;;;;;20.43;74.36;98034.47;4973099;28;20493;-79
2023/09/13 09:41:32;;;;;;;5.17;4.67;;;;;;;20.60;73.59;98037.88;4968443;28;20560;-78
2023/09/13 09:44:00;;;;;;;6.77;6.17;;;;;;;20.68;73.61;98037.38;4976380;28;20510;-79
2023/09/13 09:46:27;;;;;;;5.80;5.30;;;;;;;20.39;75.10;98034.19;4972285;28;20521;-79
2023/09/13 09:48:53;;;;;;;6.30;5.80;;;;;;;20.27;75.37;98043.69;4967499;28;20474;-79
2023/09/13 09:51:21;;;;;;;6.00;5.60;;;;;;;20.30;75.04;98045.91;4972030;28;20493;-79
2023/09/13 09:53:48;;;;;;;76.00;59.30;;;;;;;20.44;74.86;98036.97;4973702;28;20462;-79
2023/09/13 09:56:16;;;;;;;5.93;5.53;;;;;;;20.37;74.25;98039.13;4980472;28;20465;-79
2023/09/13 09:58:44;;;;;;;6.20;5.80;;;;;;;20.55;73.65;98039.75;4973213;28;21068;-79
2023/09/13 10:01:12;;;;;;;5.53;5.13;;;;;;;20.61;73.56;98036.78;4972941;28;20464;-79
2023/09/13 10:03:39;;;;;;;5.60;5.20;;;;;;;20.78;72.97;98042.94;4970832;28;20554;-80
2023/09/13 10:06:10;;;;;;;5.27;4.87;;;;;;;20.73;72.22;98039.31;4978400;28;20553;-80
2023/09/13 10:08:41;;;;;;;5.33;5.00;;;;;;;20.76;72.37;98045.13;4971045;28;20576;-79
2023/09/13 10:11:09;;;;;;;4.63;4.33;;;;;;;20.85;72.03;98047.34;4973388;28;20501;-80
2023/09/13 10:13:36;;;;;;;4.80;4.40;;;;;;;20.99;71.68;98037.50;4971862;28;20589;-80
2023/09/13 10:16:04;;;;;;;5.20;4.83;;;;;;;21.08;71.09;98047.75;4978347;28;20474;-80
2023/09/13 10:18:37;;;;;;;5.47;5.00;;;;;;;20.92;71.51;98047.94;4976905;28;20458;-80
2023/09/13 10:21:04;;;;;;;4.83;4.53;;;;;;;20.95;71.41;98047.41;4971843;28;20545;-80
2023/09/13 10:23:38;;;;;;;6.80;6.20;;;;;;;20.97;71.88;98047.94;4976562;28;20489;-80
2023/09/13 10:26:08;;;;;;;18.73;17.20;;;;;;;20.99;71.99;98041.09;4974637;28;20816;-80
2023/09/13 10:28:37;;;;;;;5.57;5.17;;;;;;;20.97;71.55;98042.44;4973628;28;20462;-80
2023/09/13 10:31:07;;;;;;;5.27;4.87;;;;;;;21.07;70.72;98045.25;4969276;28;20830;-80
2023/09/13 10:33:36;;;;;;;6.40;5.90;;;;;;;21.07;70.63;98050.75;4973006;28;20509;-77
2023/09/13 10:36:07;;;;;;;5.30;4.90;;;;;;;21.27;69.88;98042.59;4977110;28;20546;-80
2023/09/13 10:38:39;;;;;;;5.60;5.10;;;;;;;21.53;69.30;98043.47;4974092;28;20486;-80
2023/09/13 10:41:09;;;;;;;7.13;6.53;;;;;;;21.92;68.05;98041.03;4971940;28;20462;-80
2023/09/13 10:43:36;;;;;;;5.60;5.10;;;;;;;22.29;66.95;98045.47;4972544;28;21004;-80
2023/09/13 10:46:03;;;;;;;5.93;5.53;;;;;;;22.09;65.95;98040.81;4971864;28;20467;-80
2023/09/13 10:48:31;;;;;;;6.50;6.00;;;;;;;21.99;67.28;98044.34;4968712;28;20550;-79
2023/09/13 10:51:00;;;;;;;21.40;19.70;;;;;;;22.16;66.53;98048.75;4984829;28;20446;-80
2023/09/13 10:53:27;;;;;;;6.03;5.63;;;;;;;22.43;65.74;98041.00;4972247;28;20471;-80
2023/09/13 10:55:54;;;;;;;7.03;6.53;;;;;;;22.45;64.78;98038.81;4970246;28;20517;-80
2023/09/13 10:58:21;;;;;;;5.50;5.10;;;;;;;22.67;63.89;98031.03;4972625;28;20545;-80
2023/09/13 11:00:50;;;;;;;3.87;3.57;;;;;;;22.91;62.85;98035.94;4971534;28;20497;-81
2023/09/13 11:03:17;;;;;;;4.07;3.77;;;;;;;23.13;62.10;98033.63;4968592;28;20465;-81
2023/09/13 11:05:46;;;;;;;5.30;4.60;;;;;;;23.51;59.80;98045.03;4973285;28;20465;-80
2023/09/13 11:08:27;;;;;;;4.40;4.00;;;;;;;23.61;59.61;98036.72;4970620;28;20489;-80
2023/09/13 11:10:55;;;;;;;15.30;14.10;;;;;;;23.41;60.34;98035.69;4973936;28;20494;-81
2023/09/13 11:13:29;;;;;;;12.77;11.67;;;;;;;23.58;60.14;98040.06;4980516;28;20458;-80
2023/09/13 11:16:01;;;;;;;4.97;4.67;;;;;;;23.77;59.97;98041.84;4976122;28;20477;-80
2023/09/13 11:18:28;;;;;;;15.37;14.23;;;;;;;24.25;58.43;98039.28;4971892;28;20462;-80
2023/09/13 11:20:56;;;;;;;5.17;4.43;;;;;;;24.68;57.03;98042.19;4978585;28;21010;-80
2023/09/13 11:23:23;;;;;;;4.20;4.00;;;;;;;24.85;56.09;98031.44;4985571;28;20552;-80
2023/09/13 11:25:53;;;;;;;3.67;3.47;;;;;;;25.02;54.65;98030.97;4979811;28;20458;-80
2023/09/13 11:28:32;;;;;;;4.20;3.77;;;;;;;25.52;52.02;98035.03;4974932;28;20533;-80
2023/09/13 11:31:01;;;;;;;3.47;3.27;;;;;;;26.11;50.91;98031.63;4974906;28;21151;-80
2023/09/13 11:33:28;;;;;;;3.77;3.37;;;;;;;26.81;49.23;98035.41;4972209;28;20481;-80
2023/09/13 11:35:56;;;;;;;3.83;3.53;;;;;;;26.94;48.87;98037.38;4973537;28;20465;-81